Terminal Aerodrome Forecast
Issued by NWS Pocatello, ID

Home | Current Version | Previous Version | Text Only | Print | Product List | Glossary On
Versions: 1 2 3 4 5 6 7 8 9 10 11 12 13 14 15
000
FTUS45 KPIH 212300
TAFBYI
TAF
KBYI 212320Z 2200/2224 VRB06KT P6SM FEW120
     FM220500 18010KT P6SM VCSH SCT025 BKN040
     FM220700 21012G20KT 4SM -RA SCT015 OVC030
     FM221100 22015G25KT P6SM VCSH SCT030 BKN060
     FM221400 23015G25KT 5SM -RA SCT020 OVC040
     FM222100 27020G30KT P6SM VCSH SCT030 BKN100=

USA.gov is the U.S. government's official web portal to all federal, state and local government web resources and services.